Terminal Aerodrome Forecast
Issued by NWS Shreveport, LA

Current Version | Previous Version | Text Only | Print | Product List | Glossary On
Versions: 1 2 3 4 5 6 7 8 9 10 11 12 13 14 15 16 17 18 19 20 21 22
000
FTUS44 KSHV 282336
TAFMLU
TAF
KMLU 282336Z 2900/2924 VRB04KT P6SM VCTS SCT050CB SCT080 BKN140
     FM290100 VRB03KT P6SM FEW050 SCT250
     FM290900 00000KT 2SM BR BKN005
     FM291500 20006KT P6SM BKN035
     FM292100 14005KT P6SM VCTS BKN040CB=

USA.gov is the U.S. government's official web portal to all federal, state and local government web resources and services.